createdAt,value
2023-02-01T00:01:25.612Z,14.95
2023-02-01T00:03:52.702Z,16.02
2023-02-01T00:06:19.983Z,17.85
2023-02-01T00:08:47.059Z,16.67
2023-02-01T00:11:14.612Z,15.25
2023-02-01T00:13:43.018Z,11.82
2023-02-01T00:16:18.936Z,12.43
2023-02-01T00:18:47.899Z,20.65
2023-02-01T00:21:16.553Z,16.02
2023-02-01T00:23:44.056Z,13.70
2023-02-01T00:26:28.979Z,9.95
2023-02-01T00:28:56.087Z,10.85
2023-02-01T00:31:23.517Z,11.23
2023-02-01T00:33:50.897Z,9.57
2023-02-01T00:36:18.915Z,10.20
2023-02-01T00:38:46.410Z,8.55
2023-02-01T00:41:18.990Z,10.30
2023-02-01T00:43:46.765Z,13.25
2023-02-01T00:46:15.921Z,13.07
2023-02-01T00:48:43.235Z,12.80
2023-02-01T00:51:16.905Z,13.10
2023-02-01T00:53:44.234Z,11.50
2023-02-01T00:56:11.559Z,10.77
2023-02-01T00:58:38.949Z,11.43
2023-02-01T01:01:08.042Z,9.60
2023-02-01T01:03:40.704Z,10.10
2023-02-01T01:06:15.101Z,11.52
2023-02-01T01:08:43.192Z,11.70
2023-02-01T01:11:13.909Z,12.93
2023-02-01T01:13:42.871Z,11.52
2023-02-01T01:16:12.437Z,12.05
2023-02-01T01:18:40.762Z,14.38
2023-02-01T01:21:09.864Z,13.30
2023-02-01T01:23:37.464Z,14.90
2023-02-01T01:26:09.885Z,15.50
2023-02-01T01:28:37.626Z,14.93
2023-02-01T01:31:09.772Z,14.23
2023-02-01T01:33:37.548Z,11.55
2023-02-01T01:36:12.253Z,14.65
2023-02-01T01:41:12.911Z,13.40
2023-02-01T01:43:55.928Z,13.85
2023-02-01T01:46:32.121Z,13.32
2023-02-01T01:49:11.319Z,14.30
2023-02-01T01:51:52.688Z,13.68
2023-02-01T01:54:28.462Z,16.30
2023-02-01T01:56:59.942Z,17.80
2023-02-01T01:59:27.970Z,23.95
2023-02-01T02:01:56.805Z,21.33
2023-02-01T02:04:26.323Z,18.95
2023-02-01T02:07:02.799Z,18.70
2023-02-01T02:09:29.997Z,17.60
2023-02-01T02:11:57.402Z,16.52
2023-02-01T02:14:26.418Z,18.13
2023-02-01T02:17:25.936Z,15.00
2023-02-01T02:20:24.419Z,13.18
2023-02-01T02:23:03.333Z,14.73
2023-02-01T02:25:35.146Z,16.20
2023-02-01T02:28:31.623Z,17.35
2023-02-01T02:31:21.987Z,21.38
2023-02-01T02:34:06.576Z,21.42
2023-02-01T02:37:15.470Z,24.83
2023-02-01T02:39:58.308Z,25.85
2023-02-01T02:42:58.423Z,30.98
2023-02-01T02:46:10.368Z,32.60
2023-02-01T02:48:53.217Z,34.92
2023-02-01T02:51:45.242Z,29.63
2023-02-01T02:54:35.916Z,40.47
2023-02-01T02:57:24.917Z,40.70
2023-02-01T03:00:13.767Z,47.55
2023-02-01T03:02:59.827Z,33.40
2023-02-01T03:05:33.621Z,27.13
2023-02-01T03:08:11.573Z,33.88
2023-02-01T03:11:03.717Z,39.42
2023-02-01T03:13:45.177Z,43.20
2023-02-01T03:16:30.261Z,31.02
2023-02-01T03:19:19.860Z,30.20
2023-02-01T03:22:03.608Z,36.53
2023-02-01T03:24:53.022Z,31.20
2023-02-01T03:27:35.183Z,25.17
2023-02-01T03:30:06.850Z,29.95
2023-02-01T03:32:55.916Z,31.50
2023-02-01T03:35:49.536Z,32.35
2023-02-01T03:38:24.796Z,26.10
2023-02-01T03:41:11.590Z,32.65
2023-02-01T03:44:14.060Z,26.27
2023-02-01T03:46:56.624Z,29.17
2023-02-01T03:49:42.604Z,32.40
2023-02-01T03:52:15.775Z,26.98
2023-02-01T03:54:45.174Z,37.42
2023-02-01T03:57:17.728Z,28.38
2023-02-01T03:59:46.585Z,34.08
2023-02-01T04:02:14.107Z,26.63
2023-02-01T04:04:41.244Z,27.88
2023-02-01T04:07:08.731Z,29.42
2023-02-01T04:09:35.791Z,28.05
2023-02-01T04:12:03.736Z,27.58
2023-02-01T04:14:30.869Z,26.42
2023-02-01T04:16:58.199Z,29.85
2023-02-01T04:19:25.505Z,29.48
2023-02-01T04:21:52.746Z,32.83
2023-02-01T04:24:20.126Z,31.98
2023-02-01T04:26:47.267Z,30.23
2023-02-01T04:29:14.502Z,29.13
2023-02-01T04:31:42.465Z,30.77
2023-02-01T04:34:09.734Z,28.48
2023-02-01T04:36:36.799Z,25.90
2023-02-01T04:39:04.038Z,26.25
2023-02-01T04:41:31.732Z,23.80
2023-02-01T04:43:59.015Z,22.17
2023-02-01T04:46:26.259Z,16.90
2023-02-01T04:48:53.538Z,22.45
2023-02-01T04:51:20.689Z,21.42
2023-02-01T04:53:47.753Z,19.15
2023-02-01T04:56:15.050Z,15.02
2023-02-01T04:58:42.206Z,15.82
2023-02-01T05:01:09.686Z,14.52
2023-02-01T05:03:36.979Z,11.32
2023-02-01T05:06:05.968Z,15.68
2023-02-01T05:08:33.519Z,15.25
2023-02-01T05:11:03.500Z,11.15
2023-02-01T05:13:49.716Z,14.30
2023-02-01T05:16:17.884Z,13.57
2023-02-01T05:18:44.921Z,13.88
2023-02-01T05:21:12.214Z,12.70
2023-02-01T05:23:59.253Z,12.18
2023-02-01T05:26:27.288Z,15.77
2023-02-01T05:28:54.495Z,14.77
2023-02-01T05:31:22.416Z,10.02
2023-02-01T05:33:49.733Z,11.13
2023-02-01T05:36:17.077Z,9.75
2023-02-01T05:38:44.535Z,13.18
2023-02-01T05:41:11.679Z,13.05
2023-02-01T05:43:38.852Z,10.80
2023-02-01T05:46:06.272Z,14.40
2023-02-01T05:48:34.419Z,15.73
2023-02-01T05:51:01.588Z,16.95
2023-02-01T05:53:28.676Z,14.05
2023-02-01T05:55:55.823Z,11.70
2023-02-01T05:58:23.003Z,11.45
2023-02-01T06:00:50.287Z,9.25
2023-02-01T06:03:18.295Z,11.25
2023-02-01T06:05:46.446Z,10.88
2023-02-01T06:08:14.086Z,10.70
2023-02-01T06:10:41.294Z,11.25
2023-02-01T06:13:08.596Z,12.07
2023-02-01T06:15:38.675Z,12.85
2023-02-01T06:18:05.967Z,9.95
2023-02-01T06:20:33.018Z,14.93
2023-02-01T06:23:00.049Z,11.65
2023-02-01T06:25:27.204Z,13.85
2023-02-01T06:27:54.792Z,13.43
2023-02-01T06:30:22.358Z,13.95
2023-02-01T06:32:55.515Z,14.63
2023-02-01T06:35:22.622Z,12.07
2023-02-01T06:37:49.722Z,12.48
2023-02-01T06:40:17.138Z,11.63
2023-02-01T06:42:44.389Z,10.82
2023-02-01T06:45:11.768Z,10.38
2023-02-01T06:47:39.028Z,9.45
2023-02-01T06:50:06.646Z,9.88
2023-02-01T06:52:34.652Z,9.40
2023-02-01T06:55:02.005Z,11.52
2023-02-01T06:57:32.244Z,10.00
2023-02-01T06:59:59.704Z,14.32
2023-02-01T07:02:26.876Z,11.60
2023-02-01T07:04:54.084Z,13.35
2023-02-01T07:07:25.341Z,13.70
2023-02-01T07:09:52.745Z,14.57
2023-02-01T07:12:20.701Z,16.30
2023-02-01T07:14:47.766Z,15.43
2023-02-01T07:17:14.913Z,12.55
2023-02-01T07:19:42.055Z,12.05
2023-02-01T07:22:09.188Z,18.00
2023-02-01T07:24:36.474Z,17.50
2023-02-01T07:27:03.800Z,15.63
2023-02-01T07:29:30.926Z,13.98
2023-02-01T07:31:58.212Z,15.73
2023-02-01T07:34:25.500Z,12.60
2023-02-01T07:36:52.701Z,15.18
2023-02-01T07:39:19.802Z,16.30
2023-02-01T07:41:47.280Z,14.13
2023-02-01T07:44:15.096Z,15.73
2023-02-01T07:46:42.380Z,17.42
2023-02-01T07:49:09.579Z,24.05
2023-02-01T07:51:36.729Z,15.85
2023-02-01T07:54:04.057Z,18.92
2023-02-01T07:56:31.281Z,18.15
2023-02-01T07:59:01.777Z,16.45
2023-02-01T08:01:30.391Z,16.40
2023-02-01T08:04:00.527Z,18.00
2023-02-01T08:06:33.051Z,15.77
2023-02-01T08:09:00.598Z,15.93
2023-02-01T08:11:29.254Z,19.40
2023-02-01T08:13:56.654Z,17.27
2023-02-01T08:16:24.589Z,18.92
2023-02-01T08:18:52.996Z,17.20
2023-02-01T08:21:25.617Z,16.98
2023-02-01T08:23:53.824Z,16.23
2023-02-01T08:26:24.726Z,18.48
2023-02-01T08:28:55.171Z,16.90
2023-02-01T08:31:25.475Z,15.80
2023-02-01T08:34:05.304Z,16.42
2023-02-01T08:36:33.199Z,16.05
2023-02-01T08:39:00.423Z,15.52
2023-02-01T08:41:30.668Z,14.02
2023-02-01T08:44:00.125Z,13.85
2023-02-01T08:46:27.983Z,12.50
2023-02-01T08:48:55.071Z,14.63
2023-02-01T08:51:24.185Z,17.08
2023-02-01T08:53:52.175Z,14.30
2023-02-01T08:56:20.396Z,12.73
2023-02-01T08:58:47.844Z,11.45
2023-02-01T09:01:17.127Z,12.27
2023-02-01T09:03:44.705Z,11.90
2023-02-01T09:06:14.062Z,9.93
2023-02-01T09:08:42.713Z,7.60
2023-02-01T09:11:14.827Z,10.98
2023-02-01T09:13:42.866Z,10.15
2023-02-01T09:16:10.454Z,10.63
2023-02-01T09:18:46.095Z,10.95
2023-02-01T09:21:24.326Z,10.35
2023-02-01T09:23:54.505Z,11.32
2023-02-01T09:26:26.499Z,10.27
2023-02-01T09:28:58.551Z,8.18
2023-02-01T09:31:25.780Z,11.52
2023-02-01T09:33:52.907Z,10.50
2023-02-01T09:36:20.921Z,12.45
2023-02-01T09:38:52.731Z,11.02
2023-02-01T09:41:39.083Z,11.77
2023-02-01T09:44:13.421Z,11.68
2023-02-01T09:46:40.889Z,9.65
2023-02-01T09:49:17.694Z,10.23
2023-02-01T09:51:49.037Z,10.35
2023-02-01T09:54:30.963Z,10.68
2023-02-01T09:57:33.898Z,11.55
2023-02-01T10:00:16.605Z,10.07
2023-02-01T10:02:47.112Z,10.75
2023-02-01T10:05:24.323Z,13.57
2023-02-01T10:08:28.068Z,10.15
2023-02-01T10:11:04.820Z,14.30
2023-02-01T10:13:56.137Z,13.52
2023-02-01T10:16:35.840Z,13.70
2023-02-01T10:19:23.573Z,15.98
2023-02-01T10:22:04.022Z,15.30
2023-02-01T10:24:48.031Z,15.35
2023-02-01T10:27:23.944Z,19.00
2023-02-01T10:30:00.522Z,15.05
2023-02-01T10:32:35.798Z,13.32
2023-02-01T10:35:19.938Z,15.80
2023-02-01T10:37:48.086Z,13.65
2023-02-01T10:40:25.701Z,14.07
2023-02-01T10:42:57.951Z,13.13
2023-02-01T10:45:29.046Z,13.35
2023-02-01T10:47:59.114Z,15.50
2023-02-01T10:50:54.952Z,18.58
2023-02-01T10:53:53.217Z,19.52
2023-02-01T10:56:28.534Z,16.75
2023-02-01T10:59:04.463Z,15.68
2023-02-01T11:01:43.016Z,16.08
2023-02-01T11:04:24.425Z,17.05
2023-02-01T11:07:06.510Z,24.13
2023-02-01T11:09:36.503Z,19.13
2023-02-01T11:12:04.037Z,19.65
2023-02-01T11:14:40.504Z,17.38
2023-02-01T11:17:18.792Z,20.67
2023-02-01T11:20:07.271Z,22.20
2023-02-01T11:22:34.408Z,21.25
2023-02-01T11:25:10.736Z,23.23
2023-02-01T11:27:49.414Z,20.30
2023-02-01T11:30:37.978Z,19.70
2023-02-01T11:33:07.091Z,22.83
2023-02-01T11:35:39.264Z,20.33
2023-02-01T11:38:18.898Z,20.17
2023-02-01T11:40:46.748Z,18.08
2023-02-01T11:43:26.497Z,20.00
2023-02-01T11:46:02.021Z,16.67
2023-02-01T11:48:32.064Z,22.15
2023-02-01T11:51:30.286Z,14.23
2023-02-01T11:54:22.938Z,16.70
2023-02-01T11:57:00.554Z,17.13
2023-02-01T11:59:56.372Z,21.00
2023-02-01T12:02:36.801Z,20.75
2023-02-01T12:05:28.800Z,21.13
2023-02-01T12:08:26.468Z,25.10
2023-02-01T12:11:16.294Z,24.15
2023-02-01T12:13:46.253Z,22.45
2023-02-01T12:16:21.895Z,24.33
2023-02-01T12:18:58.304Z,27.58
2023-02-01T12:21:26.278Z,22.75
2023-02-01T12:24:03.913Z,29.88
2023-02-01T12:26:34.341Z,27.30
2023-02-01T12:29:13.511Z,21.40
2023-02-01T12:31:58.991Z,24.23
2023-02-01T12:34:52.628Z,27.20
2023-02-01T12:37:45.549Z,19.08
2023-02-01T12:40:32.276Z,19.13
2023-02-01T12:43:37.757Z,19.80
2023-02-01T12:46:15.884Z,21.23
2023-02-01T12:49:13.118Z,19.60
2023-02-01T12:51:43.935Z,20.35
2023-02-01T12:54:35.863Z,20.60
2023-02-01T12:57:09.118Z,18.10
2023-02-01T12:59:41.663Z,17.08
2023-02-01T13:02:27.258Z,22.00
2023-02-01T13:05:05.478Z,17.02
2023-02-01T13:08:01.810Z,19.92
2023-02-01T13:10:31.887Z,21.90
2023-02-01T13:13:23.496Z,19.55
2023-02-01T13:16:28.281Z,21.67
2023-02-01T13:19:04.914Z,22.52
2023-02-01T13:21:37.911Z,19.63
2023-02-01T13:24:05.802Z,22.35
2023-02-01T13:26:33.357Z,21.17
2023-02-01T13:29:04.411Z,26.13
2023-02-01T13:31:58.684Z,44.50
2023-02-01T13:34:57.553Z,23.55
2023-02-01T13:37:53.778Z,26.42
2023-02-01T13:40:42.201Z,21.95
2023-02-01T13:43:14.189Z,24.30
2023-02-01T13:46:07.621Z,28.40
2023-02-01T13:48:42.991Z,25.73
2023-02-01T13:51:10.321Z,30.33
2023-02-01T13:53:44.992Z,27.20
2023-02-01T13:56:19.212Z,29.00
2023-02-01T13:58:48.613Z,25.77
2023-02-01T14:01:27.553Z,25.60
2023-02-01T14:03:59.142Z,25.05
2023-02-01T14:06:30.041Z,25.13
2023-02-01T14:09:10.928Z,24.75
2023-02-01T14:11:43.639Z,30.38
2023-02-01T14:14:17.201Z,24.58
2023-02-01T14:16:53.636Z,27.02
2023-02-01T14:19:25.470Z,24.25
2023-02-01T14:22:02.521Z,26.50
2023-02-01T14:24:37.600Z,23.67
2023-02-01T14:27:14.465Z,31.02
2023-02-01T14:29:44.889Z,23.20
2023-02-01T14:32:23.881Z,25.00
2023-02-01T14:34:56.466Z,23.17
2023-02-01T14:37:29.185Z,27.02
2023-02-01T14:40:03.345Z,27.85
2023-02-01T14:42:35.178Z,25.67
2023-02-01T14:45:23.414Z,29.20
2023-02-01T14:48:08.054Z,28.20
2023-02-01T14:50:46.018Z,22.42
2023-02-01T14:53:13.172Z,22.40
2023-02-01T14:55:46.670Z,25.05
2023-02-01T14:58:22.070Z,25.05
2023-02-01T15:00:56.082Z,18.92
2023-02-01T15:04:02.250Z,21.23
2023-02-01T15:06:47.741Z,22.02
2023-02-01T15:09:40.058Z,23.70
2023-02-01T15:12:13.634Z,19.10
2023-02-01T15:14:50.283Z,29.92
2023-02-01T15:17:25.147Z,22.50
2023-02-01T15:20:00.909Z,22.27
2023-02-01T15:22:30.954Z,20.10
2023-02-01T15:25:00.331Z,19.52
2023-02-01T15:27:29.867Z,18.60
2023-02-01T15:30:07.965Z,27.40
2023-02-01T15:32:39.848Z,21.85
2023-02-01T15:35:28.488Z,24.45
2023-02-01T15:38:24.572Z,29.48
2023-02-01T15:41:07.196Z,21.45
2023-02-01T15:43:40.180Z,18.05
2023-02-01T15:46:22.609Z,18.95
2023-02-01T15:48:53.462Z,16.20
2023-02-01T15:51:29.699Z,17.88
2023-02-01T15:54:03.782Z,18.92
2023-02-01T15:56:40.122Z,23.00
2023-02-01T15:59:23.966Z,20.02
2023-02-01T16:01:53.026Z,18.23
2023-02-01T16:04:23.418Z,21.75
2023-02-01T16:06:56.512Z,30.95
2023-02-01T16:09:28.328Z,23.58
2023-02-01T16:12:01.515Z,23.25
2023-02-01T16:14:29.601Z,21.50
2023-02-01T16:16:59.784Z,18.65
2023-02-01T16:19:29.392Z,17.52
2023-02-01T16:22:00.086Z,20.25
2023-02-01T16:24:27.393Z,22.60
2023-02-01T16:26:55.091Z,17.23
2023-02-01T16:29:22.992Z,16.48
2023-02-01T16:31:51.389Z,14.38
2023-02-01T16:34:19.044Z,17.65
2023-02-01T16:36:53.584Z,14.52
2023-02-01T16:39:21.672Z,14.90
2023-02-01T16:41:49.019Z,14.40
2023-02-01T16:44:16.413Z,14.85
2023-02-01T16:46:50.224Z,15.18
2023-02-01T16:49:27.101Z,14.85
2023-02-01T16:51:59.785Z,17.77
2023-02-01T16:54:27.878Z,13.57
2023-02-01T16:56:55.471Z,17.80
2023-02-01T16:59:26.888Z,15.52
2023-02-01T17:01:57.482Z,16.60
2023-02-01T17:04:28.032Z,16.02
2023-02-01T17:06:55.526Z,14.70
2023-02-01T17:09:23.425Z,17.33
2023-02-01T17:11:50.478Z,22.77
2023-02-01T17:14:23.086Z,19.10
2023-02-01T17:16:52.991Z,18.02
2023-02-01T17:19:25.907Z,19.17
2023-02-01T17:21:59.125Z,16.40
2023-02-01T17:24:47.577Z,14.88
2023-02-01T17:27:16.701Z,16.88
2023-02-01T17:29:45.590Z,18.83
2023-02-01T17:32:21.714Z,17.38
2023-02-01T17:34:49.430Z,19.08
2023-02-01T17:37:32.649Z,16.10
2023-02-01T17:40:02.677Z,16.88
2023-02-01T17:42:31.493Z,17.02
2023-02-01T17:45:04.641Z,17.90
2023-02-01T17:47:33.553Z,16.70
2023-02-01T17:50:00.821Z,16.17
2023-02-01T17:52:29.487Z,17.30
2023-02-01T17:54:56.575Z,18.80
2023-02-01T17:57:23.978Z,25.27
2023-02-01T17:59:51.181Z,17.27
2023-02-01T18:02:25.808Z,16.20
2023-02-01T18:04:53.228Z,19.13
2023-02-01T18:07:20.445Z,21.15
2023-02-01T18:09:49.635Z,21.50
2023-02-01T18:12:25.568Z,17.85
2023-02-01T18:14:52.678Z,17.08
2023-02-01T18:17:26.604Z,17.17
2023-02-01T18:19:54.976Z,15.73
2023-02-01T18:22:24.668Z,12.75
2023-02-01T18:24:52.064Z,15.30
2023-02-01T18:27:23.065Z,16.27
2023-02-01T18:29:50.491Z,18.65
2023-02-01T18:32:17.825Z,16.92
2023-02-01T18:34:45.263Z,16.85
2023-02-01T18:37:12.583Z,16.77
2023-02-01T18:39:40.025Z,14.43
2023-02-01T18:42:13.914Z,19.40
2023-02-01T18:44:41.271Z,18.15
2023-02-01T18:47:11.458Z,18.10
2023-02-01T18:49:43.216Z,18.95
2023-02-01T18:52:13.550Z,21.50
2023-02-01T18:54:57.648Z,19.55
2023-02-01T18:57:31.623Z,19.00
2023-02-01T18:59:58.831Z,21.58
2023-02-01T19:02:26.137Z,19.45
2023-02-01T19:04:54.976Z,20.48
2023-02-01T19:07:22.167Z,19.83
2023-02-01T19:09:49.302Z,19.42
2023-02-01T19:12:16.447Z,23.08
2023-02-01T19:14:44.518Z,20.63
2023-02-01T19:17:11.782Z,19.42
2023-02-01T19:19:42.121Z,19.60
2023-02-01T19:22:09.789Z,18.92
2023-02-01T19:24:39.424Z,19.13
2023-02-01T19:27:12.153Z,20.70
2023-02-01T19:29:40.907Z,21.90
2023-02-01T19:32:08.228Z,18.00
2023-02-01T19:34:35.539Z,19.67
2023-02-01T19:37:02.667Z,23.48
2023-02-01T19:39:29.808Z,20.88
2023-02-01T19:41:58.210Z,19.42
2023-02-01T19:44:26.311Z,17.80
2023-02-01T19:46:53.349Z,18.88
2023-02-01T19:49:21.042Z,20.08
2023-02-01T19:51:49.056Z,20.98
2023-02-01T19:54:16.943Z,20.30
2023-02-01T19:56:51.045Z,19.20
2023-02-01T19:59:19.280Z,21.17
2023-02-01T20:01:46.756Z,20.75
2023-02-01T20:04:15.912Z,19.98
2023-02-01T20:06:49.075Z,20.42
2023-02-01T20:09:21.461Z,21.42
2023-02-01T20:11:49.759Z,19.58
2023-02-01T20:14:17.217Z,20.70
2023-02-01T20:16:44.487Z,25.88
2023-02-01T20:19:11.830Z,23.02
2023-02-01T20:21:42.097Z,19.30
2023-02-01T20:24:13.155Z,16.20
2023-02-01T20:26:41.336Z,20.33
2023-02-01T20:29:09.156Z,21.35
2023-02-01T20:31:37.862Z,18.73
2023-02-01T20:34:06.648Z,23.55
2023-02-01T20:36:34.066Z,21.25
2023-02-01T20:39:01.200Z,18.02
2023-02-01T20:41:28.988Z,20.08
2023-02-01T20:43:57.174Z,21.02
2023-02-01T20:46:24.662Z,20.25
2023-02-01T20:48:52.163Z,26.17
2023-02-01T20:51:21.240Z,30.02
2023-02-01T20:53:54.857Z,23.27
2023-02-01T20:56:22.336Z,18.63
2023-02-01T20:58:49.632Z,28.58
2023-02-01T21:01:17.326Z,18.17
2023-02-01T21:03:49.162Z,22.85
2023-02-01T21:06:16.716Z,20.45
2023-02-01T21:08:44.098Z,18.25
2023-02-01T21:11:14.194Z,15.63
2023-02-01T21:13:50.803Z,18.58
2023-02-01T21:16:22.282Z,20.38
2023-02-01T21:18:51.415Z,18.60
2023-02-01T21:21:18.976Z,21.73
2023-02-01T21:23:46.229Z,19.98
2023-02-01T21:26:24.302Z,14.27
2023-02-01T21:28:53.160Z,21.92
2023-02-01T21:31:22.670Z,22.73
2023-02-01T21:33:50.134Z,21.08
2023-02-01T21:36:21.105Z,20.58
2023-02-01T21:38:52.636Z,22.77
2023-02-01T21:41:42.917Z,22.55
2023-02-01T21:44:11.415Z,17.35
2023-02-01T21:46:38.541Z,17.92
2023-02-01T21:49:07.458Z,22.77
2023-02-01T21:51:39.510Z,15.57
2023-02-01T21:54:09.103Z,18.90
2023-02-01T21:56:38.121Z,18.48
2023-02-01T21:59:10.406Z,13.68
2023-02-01T22:01:38.941Z,18.98
2023-02-01T22:04:06.943Z,19.40
2023-02-01T22:06:41.590Z,19.63
2023-02-01T22:09:16.873Z,20.65
2023-02-01T22:11:44.573Z,16.05
2023-02-01T22:14:12.461Z,15.30
2023-02-01T22:16:40.283Z,16.40
2023-02-01T22:19:10.193Z,13.27
2023-02-01T22:21:39.020Z,12.02
2023-02-01T22:24:06.457Z,13.07
2023-02-01T22:26:33.637Z,15.13
2023-02-01T22:29:00.811Z,11.48
2023-02-01T22:31:28.318Z,12.27
2023-02-01T22:33:57.597Z,11.45
2023-02-01T22:36:25.438Z,11.10
2023-02-01T22:38:53.469Z,12.25
2023-02-01T22:41:20.922Z,11.80
2023-02-01T22:43:48.185Z,11.20
2023-02-01T22:46:18.896Z,13.40
2023-02-01T22:48:47.709Z,12.05
2023-02-01T22:51:23.379Z,12.25
2023-02-01T22:53:57.315Z,11.35
2023-02-01T22:56:26.876Z,12.53
2023-02-01T22:58:56.456Z,11.60
2023-02-01T23:01:24.156Z,12.77
2023-02-01T23:03:51.474Z,14.65
2023-02-01T23:06:18.971Z,10.02
2023-02-01T23:08:46.905Z,12.15
2023-02-01T23:11:14.149Z,13.45
2023-02-01T23:13:41.432Z,12.43
2023-02-01T23:16:11.964Z,13.80
2023-02-01T23:18:40.143Z,12.55
2023-02-01T23:21:10.320Z,14.18
2023-02-01T23:23:37.879Z,12.55
2023-02-01T23:26:06.579Z,14.18
2023-02-01T23:28:33.850Z,14.43
2023-02-01T23:31:07.941Z,14.63
2023-02-01T23:33:36.130Z,13.47
2023-02-01T23:36:06.048Z,13.15
2023-02-01T23:38:34.109Z,15.43
2023-02-01T23:41:06.269Z,13.45
2023-02-01T23:43:52.464Z,16.30
2023-02-01T23:46:20.289Z,14.43
2023-02-01T23:48:51.212Z,17.25
2023-02-01T23:51:21.019Z,15.30
2023-02-01T23:53:48.565Z,13.32
2023-02-01T23:56:33.490Z,16.60
2023-02-01T23:59:02.605Z,16.70
